createdAt,value
2023-01-21T00:00:07.891Z,0.00
2023-01-21T00:11:09.677Z,0.00
2023-01-21T00:22:11.400Z,0.00
2023-01-21T00:33:13.162Z,0.00
2023-01-21T00:44:14.869Z,0.00
2023-01-21T00:55:16.638Z,0.00
2023-01-21T01:06:18.361Z,0.00
2023-01-21T01:17:20.131Z,0.00
2023-01-21T01:28:21.826Z,0.00
2023-01-21T01:39:23.577Z,0.00
2023-01-21T01:50:25.287Z,0.00
2023-01-21T02:01:27.093Z,0.00
2023-01-21T02:12:28.760Z,0.00
2023-01-21T02:23:30.504Z,0.00
2023-01-21T02:34:32.255Z,0.00
2023-01-21T02:45:33.994Z,0.00
2023-01-21T02:56:35.686Z,0.00
2023-01-21T03:07:37.438Z,0.00
2023-01-21T03:18:39.147Z,0.00
2023-01-21T03:29:40.918Z,0.00
2023-01-21T03:37:02.543Z,2.09
2023-01-21T03:48:04.322Z,0.00
2023-01-21T03:59:06.032Z,0.00
2023-01-21T04:10:07.792Z,0.00
2023-01-21T04:17:31.409Z,2.35
2023-01-21T04:24:53.097Z,2.42
2023-01-21T04:35:54.863Z,0.00
2023-01-21T04:46:56.586Z,0.00
2023-01-21T04:50:38.175Z,3.90
2023-01-21T04:54:19.894Z,3.42
2023-01-21T04:58:01.422Z,2.09
2023-01-21T05:01:43.084Z,2.75
2023-01-21T05:05:24.682Z,3.02
2023-01-21T05:09:06.284Z,2.28
2023-01-21T05:20:08.064Z,0.00
2023-01-21T05:23:49.618Z,2.61
2023-01-21T05:34:51.377Z,0.00
2023-01-21T05:38:32.997Z,2.09
2023-01-21T05:45:54.730Z,2.09
2023-01-21T05:49:36.267Z,2.94
2023-01-21T06:00:38.087Z,0.00
2023-01-21T06:11:39.692Z,0.00
2023-01-21T06:22:41.464Z,0.00
2023-01-21T06:33:43.165Z,0.00
2023-01-21T06:44:44.927Z,0.00
2023-01-21T06:55:46.626Z,0.00
2023-01-21T06:59:28.241Z,2.87
2023-01-21T07:10:30.057Z,2.09
2023-01-21T07:14:11.607Z,2.39
2023-01-21T07:25:13.334Z,2.09
2023-01-21T07:36:15.091Z,3.64
2023-01-21T07:39:56.702Z,2.74
2023-01-21T07:50:58.487Z,1.70
2023-01-21T08:02:00.421Z,0.00
2023-01-21T08:09:21.816Z,2.29
2023-01-21T08:16:43.467Z,2.61
2023-01-21T08:20:25.167Z,4.32
2023-01-21T08:24:06.803Z,4.70
2023-01-21T08:27:48.515Z,3.13
2023-01-21T08:31:30.261Z,3.30
2023-01-21T08:35:12.027Z,4.11
2023-01-21T08:38:53.768Z,4.02
2023-01-21T08:42:35.399Z,4.96
2023-01-21T08:46:17.050Z,3.42
2023-01-21T08:49:58.710Z,2.96
2023-01-21T08:57:20.440Z,4.28
2023-01-21T09:01:02.115Z,2.67
2023-01-21T09:04:43.669Z,4.21
2023-01-21T09:08:25.416Z,4.71
2023-01-21T09:12:07.057Z,3.11
2023-01-21T09:15:48.906Z,4.31
2023-01-21T09:19:30.639Z,4.41
2023-01-21T09:23:12.470Z,5.06
2023-01-21T09:26:54.190Z,3.80
2023-01-21T09:30:36.055Z,5.15
2023-01-21T09:34:17.814Z,5.27
2023-01-21T09:37:59.589Z,4.80
2023-01-21T09:41:41.206Z,2.44
2023-01-21T09:49:02.990Z,4.49
2023-01-21T09:52:44.646Z,3.15
2023-01-21T09:56:26.282Z,2.59
2023-01-21T10:00:08.169Z,5.40
2023-01-21T10:03:49.822Z,4.35
2023-01-21T10:07:31.529Z,3.24
2023-01-21T10:11:13.217Z,2.90
2023-01-21T10:14:54.806Z,3.54
2023-01-21T10:18:36.626Z,4.14
2023-01-21T10:22:18.406Z,4.42
2023-01-21T10:26:00.124Z,3.80
2023-01-21T10:29:41.890Z,3.24
2023-01-21T10:33:23.597Z,5.27
2023-01-21T10:37:05.405Z,4.34
2023-01-21T10:40:47.240Z,5.92
2023-01-21T10:44:29.040Z,4.88
2023-01-21T10:48:10.798Z,4.48
2023-01-21T10:51:52.550Z,3.20
2023-01-21T10:55:34.342Z,3.82
2023-01-21T10:59:16.010Z,2.67
2023-01-21T11:02:57.689Z,4.45
2023-01-21T11:06:39.369Z,3.55
2023-01-21T11:10:20.941Z,2.56
2023-01-21T11:14:02.599Z,3.54
2023-01-21T11:17:44.238Z,2.80
2023-01-21T11:21:25.913Z,2.95
2023-01-21T11:25:07.551Z,2.48
2023-01-21T11:32:29.421Z,5.36
2023-01-21T11:36:11.240Z,4.21
2023-01-21T11:39:52.856Z,2.81
2023-01-21T11:43:34.495Z,2.09
2023-01-21T11:50:56.191Z,2.35
2023-01-21T11:58:17.981Z,2.86
2023-01-21T12:01:59.621Z,2.09
2023-01-21T12:05:41.232Z,2.87
2023-01-21T12:09:22.920Z,3.85
2023-01-21T12:13:04.829Z,6.39
2023-01-21T12:16:46.740Z,6.94
2023-01-21T12:20:28.575Z,5.49
2023-01-21T12:24:10.396Z,7.09
2023-01-21T12:27:52.355Z,7.25
2023-01-21T12:31:34.386Z,9.51
2023-01-21T12:35:16.441Z,4.52
2023-01-21T12:38:57.828Z,4.23
2023-01-21T12:42:39.770Z,7.02
2023-01-21T12:46:21.733Z,5.52
2023-01-21T12:50:03.517Z,5.66
2023-01-21T12:53:45.462Z,5.62
2023-01-21T12:57:27.451Z,7.99
2023-01-21T13:01:09.425Z,7.39
2023-01-21T13:04:51.177Z,4.75
2023-01-21T13:08:33.031Z,4.13
2023-01-21T13:12:14.899Z,5.02
2023-01-21T13:15:56.876Z,6.46
2023-01-21T13:19:38.728Z,5.30
2023-01-21T13:23:20.585Z,6.84
2023-01-21T13:27:02.483Z,6.29
2023-01-21T13:30:44.394Z,5.98
2023-01-21T13:34:26.263Z,4.40
2023-01-21T13:38:08.071Z,4.83
2023-01-21T13:41:49.913Z,5.01
2023-01-21T13:45:31.763Z,3.53
2023-01-21T13:49:13.651Z,7.46
2023-01-21T13:52:55.399Z,4.44
2023-01-21T13:56:37.262Z,6.44
2023-01-21T14:00:19.459Z,4.78
2023-01-21T14:04:03.169Z,6.79
2023-01-21T14:07:42.873Z,5.31
2023-01-21T14:11:24.631Z,4.74
2023-01-21T14:15:06.395Z,4.57
2023-01-21T14:18:48.159Z,3.96
2023-01-21T14:22:29.934Z,7.53
2023-01-21T14:26:11.829Z,6.31
2023-01-21T14:29:53.810Z,7.31
2023-01-21T14:33:35.672Z,5.91
2023-01-21T14:37:17.603Z,5.02
2023-01-21T14:40:59.491Z,4.89
2023-01-21T14:44:41.309Z,4.66
2023-01-21T14:48:23.153Z,3.68
2023-01-21T14:52:04.870Z,5.86
2023-01-21T14:55:46.718Z,4.90
2023-01-21T14:59:28.525Z,4.47
2023-01-21T15:03:10.401Z,5.19
2023-01-21T15:06:52.178Z,3.03
2023-01-21T15:10:33.825Z,3.91
2023-01-21T15:14:16.445Z,4.57
2023-01-21T15:17:58.291Z,4.34
2023-01-21T15:21:40.078Z,3.36
2023-01-21T15:25:21.725Z,3.25
2023-01-21T15:29:03.440Z,4.49
2023-01-21T15:32:45.182Z,4.71
2023-01-21T15:36:27.021Z,4.08
2023-01-21T15:40:08.849Z,5.79
2023-01-21T15:43:50.608Z,5.18
2023-01-21T15:47:32.188Z,2.96
2023-01-21T15:51:13.946Z,3.69
2023-01-21T15:54:55.575Z,4.29
2023-01-21T15:58:37.262Z,4.50
2023-01-21T16:02:19.305Z,4.65
2023-01-21T16:06:01.041Z,5.41
2023-01-21T16:09:42.955Z,6.78
2023-01-21T16:13:24.793Z,4.29
2023-01-21T16:17:06.477Z,3.66
2023-01-21T16:20:49.503Z,4.37
2023-01-21T16:24:31.493Z,5.07
2023-01-21T16:28:13.414Z,3.97
2023-01-21T16:31:55.149Z,3.88
2023-01-21T16:35:36.847Z,4.07
2023-01-21T16:39:18.749Z,4.28
2023-01-21T16:43:00.713Z,4.92
2023-01-21T16:46:42.654Z,5.22
2023-01-21T16:50:24.496Z,5.18
2023-01-21T16:54:06.477Z,5.93
2023-01-21T16:57:48.392Z,6.07
2023-01-21T17:01:30.226Z,4.33
2023-01-21T17:05:11.965Z,3.17
2023-01-21T17:08:53.979Z,2.77
2023-01-21T17:12:36.575Z,5.00
2023-01-21T17:16:17.447Z,3.06
2023-01-21T17:19:59.175Z,2.96
2023-01-21T17:23:40.941Z,3.28
2023-01-21T17:27:22.570Z,2.54
2023-01-21T17:31:04.353Z,3.58
2023-01-21T17:34:46.090Z,3.08
2023-01-21T17:38:27.884Z,3.24
2023-01-21T17:42:09.967Z,3.81
2023-01-21T17:45:51.665Z,2.39
2023-01-21T17:49:33.701Z,4.46
2023-01-21T17:53:15.529Z,3.26
2023-01-21T17:56:57.403Z,3.16
2023-01-21T18:00:39.264Z,4.11
2023-01-21T18:04:21.053Z,5.27
2023-01-21T18:08:03.005Z,3.16
2023-01-21T18:11:45.662Z,3.15
2023-01-21T18:15:26.647Z,4.39
2023-01-21T18:19:13.683Z,6.16
2023-01-21T18:22:51.922Z,2.43
2023-01-21T18:26:33.564Z,2.50
2023-01-21T18:30:15.396Z,3.97
2023-01-21T18:33:57.096Z,3.34
2023-01-21T18:37:38.874Z,4.12
2023-01-21T18:41:20.890Z,3.61
2023-01-21T18:45:02.809Z,3.30
2023-01-21T18:48:48.717Z,4.36
2023-01-21T18:52:30.549Z,6.64
2023-01-21T18:56:12.665Z,5.59
2023-01-21T18:59:54.615Z,2.73
2023-01-21T19:03:36.488Z,3.53
2023-01-21T19:07:18.356Z,6.14
2023-01-21T19:11:00.231Z,4.14
2023-01-21T19:14:42.253Z,5.33
2023-01-21T19:18:24.286Z,3.49
2023-01-21T19:22:06.174Z,2.75
2023-01-21T19:25:48.111Z,4.07
2023-01-21T19:29:29.996Z,2.25
2023-01-21T19:33:11.868Z,3.66
2023-01-21T19:36:53.780Z,5.77
2023-01-21T19:40:35.798Z,6.04
2023-01-21T19:44:17.661Z,2.59
2023-01-21T19:47:59.517Z,3.69
2023-01-21T19:51:42.006Z,3.31
2023-01-21T19:55:23.717Z,2.94
2023-01-21T19:59:05.536Z,3.15
2023-01-21T20:02:47.551Z,4.25
2023-01-21T20:06:29.424Z,3.48
2023-01-21T20:10:11.281Z,2.51
2023-01-21T20:17:33.302Z,7.35
2023-01-21T20:21:15.210Z,3.14
2023-01-21T20:24:57.545Z,2.35
2023-01-21T20:28:39.340Z,4.03
2023-01-21T20:32:21.091Z,5.46
2023-01-21T20:36:02.791Z,3.52
2023-01-21T20:39:44.496Z,2.68
2023-01-21T20:43:26.454Z,5.18
2023-01-21T20:47:08.134Z,2.74
2023-01-21T20:50:49.945Z,2.25
2023-01-21T20:54:31.858Z,3.81
2023-01-21T20:58:14.002Z,4.20
2023-01-21T21:01:55.888Z,2.86
2023-01-21T21:05:37.532Z,2.09
2023-01-21T21:09:21.911Z,2.76
2023-01-21T21:13:00.995Z,2.19
2023-01-21T21:16:42.721Z,3.56
2023-01-21T21:20:24.380Z,3.56
2023-01-21T21:27:46.244Z,2.09
2023-01-21T21:31:27.993Z,2.09
2023-01-21T21:38:49.710Z,3.73
2023-01-21T21:42:31.396Z,3.79
2023-01-21T21:46:13.415Z,3.82
2023-01-21T21:49:55.160Z,2.20
2023-01-21T22:00:57.086Z,0.00
2023-01-21T22:11:58.908Z,0.00
2023-01-21T22:23:00.761Z,2.29
2023-01-21T22:26:42.336Z,1.70
2023-01-21T22:30:23.969Z,2.81
2023-01-21T22:34:05.580Z,2.87
2023-01-21T22:37:47.245Z,3.84
2023-01-21T22:41:28.977Z,3.84
2023-01-21T22:48:50.733Z,3.46
2023-01-21T22:52:32.301Z,2.40
2023-01-21T22:56:13.935Z,3.52
2023-01-21T23:07:15.724Z,0.00
2023-01-21T23:18:17.445Z,0.00
2023-01-21T23:29:19.216Z,0.00
2023-01-21T23:40:20.960Z,0.00
2023-01-21T23:51:22.774Z,0.00
